Weather History for KDZB - March, 2013

Change the Weather History Date:

Tuesday, March 5, 2013

  Actual Average (KBMQ) Record (KBMQ)
Temperature  
Mean Temperature 52 °F -  
Max Temperature 69 °F 63 °F 84 °F (2009)
Min Temperature 32 °F 43 °F 26 °F (2002)
Degree Days  
Heating Degree Days 13    
Growing Degree Days 2 (Base 50)    
Moisture  
Dew Point 21 °F    
Average Humidity 31    
Maximum Humidity 58    
Minimum Humidity 14    
Precipitation  
Precipitation 0.00 in - - ()
Sea Level Pressure  
Sea Level Pressure 30.25 in    
Wind  
Wind Speed 12 mph (NNW)    
Max Wind Speed 22 mph    
Max Gust Speed 36 mph    
Visibility 10 miles    
Events      
Averages and records for this station are not official NWS values.
T = Trace of Precipitation, MM = Missing Value Source: NWS Daily Summary

Daily Weather History Graph

Daily Weather History Graph

Search for Another Location

Airport or City:

Trip Planner

Search our weather history database for the weather conditions in past years. The results will help you decide how hot, cold, wet, or windy it might be!

Date:

Astronomy

Mar. 05, 2013 Rise Set
Actual Time 5:54 AM MST 5:35 PM MST
Civil Twilight 5:30 AM MST 5:59 PM MST
Nautical Twilight 5:02 AM MST 6:27 PM MST
Astronomical Twilight 4:35 AM MST 6:55 PM MST
Moon 12:50 AM MST (3/5) 11:33 AM MST (3/5)
Length of Visible Light 12h 28m
Length of Day
11h 40m
Last Quarter, 40% of the Moon is Illuminated
Mar 5
Last Quarter
Mar 11
New
Mar 19
First Quarter
Mar 27
Full
Apr 2
Last Quarter

Hourly Weather History & Observations

Time (MST) Temp. Windchill Dew Point Humidity Pressure Visibility Wind Dir Wind Speed Gust Speed Precip Events Conditions
12:15 AM 69.8 °F - 42.8 °F 38% 29.75 in 10.0 mi SSW 11.5 mph 20.7 mph N/A   Clear
12:55 AM 69.8 °F - 42.8 °F 38% 29.76 in 10.0 mi SSW 6.9 mph 16.1 mph N/A   Clear
1:15 AM 68.0 °F - 37.4 °F 33% 29.83 in 10.0 mi NNW 11.5 mph 35.7 mph N/A   Clear
1:35 AM 69.8 °F - 30.2 °F 23% 29.91 in 10.0 mi NNW 20.7 mph 32.2 mph N/A   Clear
1:55 AM 60.8 °F - 39.2 °F 45% 29.97 in 10.0 mi North 21.9 mph 33.4 mph N/A   Clear
2:15 AM 53.6 °F - 37.4 °F 54% 30.00 in 10.0 mi NNW 18.4 mph 31.1 mph N/A   Clear
2:35 AM 51.8 °F - 37.4 °F 58% 30.04 in 10.0 mi North 16.1 mph 31.1 mph N/A   Clear
2:55 AM 51.8 °F - 35.6 °F 54% 30.07 in 10.0 mi NNW 11.5 mph 18.4 mph N/A   Clear
3:15 AM 50.0 °F - 35.6 °F 58% 30.10 in 10.0 mi North 19.6 mph 27.6 mph N/A   Clear
3:55 AM 50.0 °F - 33.8 °F 54% 30.13 in 10.0 mi North 18.4 mph 33.4 mph N/A   Clear
4:15 AM 48.2 °F - 33.8 °F 58% 30.15 in 10.0 mi North 21.9 mph 34.5 mph N/A   Clear
4:35 AM 48.2 °F - 33.8 °F 58% 30.17 in 10.0 mi North 13.8 mph 26.5 mph N/A   Clear
4:55 AM 48.2 °F - 32.0 °F 54% 30.18 in 10.0 mi North 16.1 mph 23.0 mph N/A   Clear
5:15 AM 48.2 °F - 32.0 °F 54% 30.19 in 10.0 mi North 11.5 mph 23.0 mph N/A   Clear
5:55 AM 46.4 °F 39.8 °F 32.0 °F 57% 30.21 in 10.0 mi North 16.1 mph 24.2 mph N/A   Clear
6:15 AM 46.4 °F 40.4 °F 32.0 °F 57% 30.23 in 10.0 mi North 13.8 mph 24.2 mph N/A   Clear
6:35 AM 46.4 °F 40.7 °F 32.0 °F 57% 30.24 in 10.0 mi North 12.7 mph 20.7 mph N/A   Clear
6:55 AM 46.4 °F 39.5 °F 30.2 °F 53% 30.25 in 10.0 mi North 17.3 mph 24.2 mph N/A   Clear
7:15 AM 46.4 °F 40.1 °F 26.6 °F 46% 30.27 in 10.0 mi North 15.0 mph 26.5 mph N/A   Clear
7:35 AM 48.2 °F - 23.0 °F 37% 30.29 in 10.0 mi North 15.0 mph 27.6 mph N/A   Clear
7:55 AM 48.2 °F - 23.0 °F 37% 30.29 in 10.0 mi North 9.2 mph 24.2 mph N/A   Clear
8:15 AM 50.0 °F - 21.2 °F 32% 30.30 in 10.0 mi North 11.5 mph 26.5 mph N/A   Clear
8:35 AM 50.0 °F - 19.4 °F 30% 30.31 in 10.0 mi North 16.1 mph 27.6 mph N/A   Clear
8:55 AM 51.8 °F - 19.4 °F 28% 30.32 in 10.0 mi North 11.5 mph 24.2 mph N/A   Clear
9:15 AM 51.8 °F - 19.4 °F 28% 30.32 in 10.0 mi North 13.8 mph 25.3 mph N/A   Clear
9:35 AM 51.8 °F - 19.4 °F 28% 30.32 in 10.0 mi North 15.0 mph 24.2 mph N/A   Clear
9:55 AM 53.6 °F - 19.4 °F 26% 30.32 in 10.0 mi North 12.7 mph 24.2 mph N/A   Clear
10:15 AM 55.4 °F - 19.4 °F 25% 30.32 in 10.0 mi NNW 16.1 mph 21.9 mph N/A   Clear
10:35 AM 55.4 °F - 19.4 °F 25% 30.32 in 10.0 mi North 11.5 mph 23.0 mph N/A   Clear
10:55 AM 55.4 °F - 19.4 °F 25% 30.32 in 10.0 mi NNW 15.0 mph 25.3 mph N/A   Clear
11:15 AM 57.2 °F - 19.4 °F 23% 30.32 in 10.0 mi NNW 12.7 mph 23.0 mph N/A   Clear
11:35 AM 59.0 °F - 17.6 °F 20% 30.31 in 10.0 mi NNW 13.8 mph 25.3 mph N/A   Clear
11:55 AM 59.0 °F - 19.4 °F 22% 30.31 in 10.0 mi NNW 10.4 mph 17.3 mph N/A   Clear
12:15 PM 60.8 °F - 17.6 °F 19% 30.30 in 10.0 mi North 13.8 mph 20.7 mph N/A   Clear
12:35 PM 60.8 °F - 17.6 °F 19% 30.30 in 10.0 mi North 13.8 mph 23.0 mph N/A   Clear
12:55 PM 60.8 °F - 14.0 °F 16% 30.29 in 10.0 mi NNW 15.0 mph 20.7 mph N/A   Clear
1:15 PM 60.8 °F - 15.8 °F 17% 30.28 in 10.0 mi North 12.7 mph 21.9 mph N/A   Clear
1:35 PM 62.6 °F - 14.0 °F 15% 30.28 in 10.0 mi NNW 17.3 mph 27.6 mph N/A   Clear
1:55 PM 62.6 °F - 14.0 °F 15% 30.28 in 10.0 mi NNW 11.5 mph 20.7 mph N/A   Clear
2:15 PM 62.6 °F - 14.0 °F 15% 30.28 in 10.0 mi North 9.2 mph 19.6 mph N/A   Clear
2:35 PM 62.6 °F - 14.0 °F 15% 30.28 in 10.0 mi North 12.7 mph 18.4 mph N/A   Clear
2:55 PM 62.6 °F - 14.0 °F 15% 30.28 in 10.0 mi North 10.4 mph 18.4 mph N/A   Clear
3:15 PM 62.6 °F - 14.0 °F 15% 30.28 in 10.0 mi North 9.2 mph 16.1 mph N/A   Clear
3:35 PM 62.6 °F - 12.2 °F 14% 30.28 in 10.0 mi NNW 15.0 mph 19.6 mph N/A   Clear
3:55 PM 62.6 °F - 12.2 °F 14% 30.28 in 10.0 mi NNW 8.1 mph 18.4 mph N/A   Clear
4:15 PM 60.8 °F - 10.4 °F 14% 30.29 in 10.0 mi NNW 9.2 mph 18.4 mph N/A   Clear
4:35 PM 60.8 °F - 10.4 °F 14% 30.29 in 10.0 mi North 11.5 mph - N/A   Clear
4:55 PM 59.0 °F - 12.2 °F 16% 30.29 in 10.0 mi North 9.2 mph - N/A   Clear
5:15 PM 59.0 °F - 12.2 °F 16% 30.30 in 10.0 mi North 6.9 mph - N/A   Clear
5:35 PM 55.4 °F - 12.2 °F 18% 30.30 in 10.0 mi North 5.8 mph - N/A   Clear
5:55 PM 55.4 °F - 12.2 °F 18% 30.31 in 10.0 mi North 3.5 mph - N/A   Clear
6:15 PM 51.8 °F - 14.0 °F 22% 30.31 in 10.0 mi Calm Calm - N/A   Clear
6:35 PM 50.0 °F - 15.8 °F 26% 30.32 in 10.0 mi Calm Calm - N/A   Clear
6:55 PM 50.0 °F - 12.2 °F 22% 30.32 in 10.0 mi Calm Calm - N/A   Clear
7:15 PM 50.0 °F - 12.2 °F 22% 30.32 in 10.0 mi Calm Calm - N/A   Clear
7:35 PM 50.0 °F - 10.4 °F 20% 30.32 in 10.0 mi North 4.6 mph - N/A   Clear
7:55 PM 50.0 °F - 12.2 °F 22% 30.33 in 10.0 mi Calm Calm - N/A   Clear
8:15 PM 48.2 °F - 14.0 °F 25% 30.34 in 10.0 mi Calm Calm - N/A   Clear
8:35 PM 46.4 °F 45.2 °F 14.0 °F 27% 30.34 in 10.0 mi NNE 3.5 mph - N/A   Clear
8:55 PM 44.6 °F - 12.2 °F 27% 30.35 in 10.0 mi Calm Calm - N/A   Clear
9:15 PM 46.4 °F - 14.0 °F 27% 30.36 in 10.0 mi Calm Calm - N/A   Clear
9:35 PM 46.4 °F - 14.0 °F 27% 30.36 in 10.0 mi Calm Calm - N/A   Clear
9:55 PM 44.6 °F - 14.0 °F 29% 30.36 in 10.0 mi Calm Calm - N/A   Clear
10:15 PM 42.8 °F - 15.8 °F 34% 30.36 in 10.0 mi Calm Calm - N/A   Clear
10:35 PM 37.4 °F - 17.6 °F 45% 30.37 in 10.0 mi Calm Calm - N/A   Clear
10:55 PM 41.0 °F - 15.8 °F 36% 30.37 in 10.0 mi Calm Calm - N/A   Clear
11:15 PM 35.6 °F 32.8 °F 17.6 °F 48% 30.36 in 10.0 mi WSW 3.5 mph - N/A   Clear
11:55 PM 32.0 °F 28.7 °F 17.6 °F 55% 30.36 in 10.0 mi SW 3.5 mph - N/A   Clear